sensor_id;sensor_type;location;lat;lon;timestamp;temperature;humidity
1956;DHT22;978;48.314;11.562;2024-03-06T00:01:49;20.40;64.30
1956;DHT22;978;48.314;11.562;2024-03-06T00:04:18;20.40;64.30
1956;DHT22;978;48.314;11.562;2024-03-06T00:06:44;20.40;64.30
1956;DHT22;978;48.314;11.562;2024-03-06T00:09:11;20.40;64.30
1956;DHT22;978;48.314;11.562;2024-03-06T00:11:38;20.40;64.30
1956;DHT22;978;48.314;11.562;2024-03-06T00:14:05;20.40;64.30
1956;DHT22;978;48.314;11.562;2024-03-06T00:16:32;20.40;64.30
1956;DHT22;978;48.314;11.562;2024-03-06T00:18:59;20.40;64.30
1956;DHT22;978;48.314;11.562;2024-03-06T00:21:27;20.40;64.30
1956;DHT22;978;48.314;11.562;2024-03-06T00:23:55;20.40;64.30
1956;DHT22;978;48.314;11.562;2024-03-06T00:26:22;20.40;64.30
1956;DHT22;978;48.314;11.562;2024-03-06T00:28:48;20.40;64.30
1956;DHT22;978;48.314;11.562;2024-03-06T00:31:15;20.40;64.30
1956;DHT22;978;48.314;11.562;2024-03-06T00:33:42;20.50;64.40
1956;DHT22;978;48.314;11.562;2024-03-06T00:36:09;20.40;64.30
1956;DHT22;978;48.314;11.562;2024-03-06T00:38:37;20.40;64.30
1956;DHT22;978;48.314;11.562;2024-03-06T00:41:04;20.40;64.30
1956;DHT22;978;48.314;11.562;2024-03-06T00:43:30;20.40;64.30
1956;DHT22;978;48.314;11.562;2024-03-06T00:45:57;20.40;64.30
1956;DHT22;978;48.314;11.562;2024-03-06T00:48:25;20.40;64.30
1956;DHT22;978;48.314;11.562;2024-03-06T00:50:52;20.40;64.30
1956;DHT22;978;48.314;11.562;2024-03-06T00:53:18;20.40;64.30
1956;DHT22;978;48.314;11.562;2024-03-06T00:55:46;20.40;64.30
1956;DHT22;978;48.314;11.562;2024-03-06T00:58:13;20.40;64.30
1956;DHT22;978;48.314;11.562;2024-03-06T01:00:40;20.40;64.30
1956;DHT22;978;48.314;11.562;2024-03-06T01:03:07;20.40;64.30
1956;DHT22;978;48.314;11.562;2024-03-06T01:05:33;20.40;64.30
1956;DHT22;978;48.314;11.562;2024-03-06T01:08:00;20.50;64.30
1956;DHT22;978;48.314;11.562;2024-03-06T01:10:27;20.40;64.30
1956;DHT22;978;48.314;11.562;2024-03-06T01:12:55;20.40;64.30
1956;DHT22;978;48.314;11.562;2024-03-06T01:15:22;20.40;64.30
1956;DHT22;978;48.314;11.562;2024-03-06T01:17:49;20.40;64.20
1956;DHT22;978;48.314;11.562;2024-03-06T01:20:16;20.40;64.20
1956;DHT22;978;48.314;11.562;2024-03-06T01:22:43;20.40;64.20
1956;DHT22;978;48.314;11.562;2024-03-06T01:25:11;20.40;64.20
1956;DHT22;978;48.314;11.562;2024-03-06T01:27:38;20.40;64.20
1956;DHT22;978;48.314;11.562;2024-03-06T01:30:07;20.40;64.30
1956;DHT22;978;48.314;11.562;2024-03-06T01:32:34;20.40;64.20
1956;DHT22;978;48.314;11.562;2024-03-06T01:35:01;20.40;64.30
1956;DHT22;978;48.314;11.562;2024-03-06T01:37:27;20.40;64.20
1956;DHT22;978;48.314;11.562;2024-03-06T01:39:54;20.40;64.20
1956;DHT22;978;48.314;11.562;2024-03-06T01:42:21;20.40;64.20
1956;DHT22;978;48.314;11.562;2024-03-06T01:44:48;20.40;64.20
1956;DHT22;978;48.314;11.562;2024-03-06T01:47:16;20.40;64.20
1956;DHT22;978;48.314;11.562;2024-03-06T01:49:43;20.40;64.20
1956;DHT22;978;48.314;11.562;2024-03-06T01:52:12;20.40;64.20
1956;DHT22;978;48.314;11.562;2024-03-06T01:54:40;20.40;64.20
1956;DHT22;978;48.314;11.562;2024-03-06T01:57:08;20.40;64.20
1956;DHT22;978;48.314;11.562;2024-03-06T01:59:35;20.40;64.20
1956;DHT22;978;48.314;11.562;2024-03-06T02:02:02;20.50;64.20
1956;DHT22;978;48.314;11.562;2024-03-06T02:04:31;20.40;64.20
1956;DHT22;978;48.314;11.562;2024-03-06T02:06:58;20.40;64.20
1956;DHT22;978;48.314;11.562;2024-03-06T02:09:25;20.40;64.80
1956;DHT22;978;48.314;11.562;2024-03-06T02:11:52;20.40;64.10
1956;DHT22;978;48.314;11.562;2024-03-06T02:14:19;20.40;64.10
1956;DHT22;978;48.314;11.562;2024-03-06T02:16:46;20.40;64.20
1956;DHT22;978;48.314;11.562;2024-03-06T02:19:12;20.40;64.10
1956;DHT22;978;48.314;11.562;2024-03-06T02:21:40;20.40;64.10
1956;DHT22;978;48.314;11.562;2024-03-06T02:24:07;20.50;64.20
1956;DHT22;978;48.314;11.562;2024-03-06T02:26:37;20.40;64.10
1956;DHT22;978;48.314;11.562;2024-03-06T02:29:04;20.40;64.10
1956;DHT22;978;48.314;11.562;2024-03-06T02:31:31;20.40;64.10
1956;DHT22;978;48.314;11.562;2024-03-06T02:33:58;20.40;64.10
1956;DHT22;978;48.314;11.562;2024-03-06T02:36:25;20.40;64.10
1956;DHT22;978;48.314;11.562;2024-03-06T02:38:53;20.40;64.10
1956;DHT22;978;48.314;11.562;2024-03-06T02:41:20;20.40;64.10
1956;DHT22;978;48.314;11.562;2024-03-06T02:43:47;20.40;64.10
1956;DHT22;978;48.314;11.562;2024-03-06T02:46:13;20.50;64.20
1956;DHT22;978;48.314;11.562;2024-03-06T02:48:40;20.40;64.10
1956;DHT22;978;48.314;11.562;2024-03-06T02:51:07;20.40;64.10
1956;DHT22;978;48.314;11.562;2024-03-06T02:53:34;20.40;64.10
1956;DHT22;978;48.314;11.562;2024-03-06T02:56:02;20.40;64.10
1956;DHT22;978;48.314;11.562;2024-03-06T02:58:29;20.40;64.10
1956;DHT22;978;48.314;11.562;2024-03-06T03:00:57;20.40;64.10
1956;DHT22;978;48.314;11.562;2024-03-06T03:03:23;20.40;64.10
1956;DHT22;978;48.314;11.562;2024-03-06T03:05:50;20.40;64.10
1956;DHT22;978;48.314;11.562;2024-03-06T03:08:17;20.40;64.10
1956;DHT22;978;48.314;11.562;2024-03-06T03:10:44;20.40;64.10
1956;DHT22;978;48.314;11.562;2024-03-06T03:13:12;20.40;64.00
1956;DHT22;978;48.314;11.562;2024-03-06T03:15:39;20.40;64.10
1956;DHT22;978;48.314;11.562;2024-03-06T03:18:07;20.40;64.00
1956;DHT22;978;48.314;11.562;2024-03-06T03:20:34;20.40;64.10
1956;DHT22;978;48.314;11.562;2024-03-06T03:23:01;20.40;64.00
1956;DHT22;978;48.314;11.562;2024-03-06T03:25:28;20.40;64.00
1956;DHT22;978;48.314;11.562;2024-03-06T03:27:55;20.40;64.00
1956;DHT22;978;48.314;11.562;2024-03-06T03:30:23;20.40;64.00
1956;DHT22;978;48.314;11.562;2024-03-06T03:32:50;20.40;64.00
1956;DHT22;978;48.314;11.562;2024-03-06T03:35:17;20.40;64.00
1956;DHT22;978;48.314;11.562;2024-03-06T03:37:46;20.40;64.00
1956;DHT22;978;48.314;11.562;2024-03-06T03:40:13;20.40;64.00
1956;DHT22;978;48.314;11.562;2024-03-06T03:42:40;20.40;64.00
1956;DHT22;978;48.314;11.562;2024-03-06T03:45:07;20.40;64.00
1956;DHT22;978;48.314;11.562;2024-03-06T03:47:36;20.40;64.00
1956;DHT22;978;48.314;11.562;2024-03-06T03:50:03;20.40;64.00
1956;DHT22;978;48.314;11.562;2024-03-06T03:52:30;20.40;64.00
1956;DHT22;978;48.314;11.562;2024-03-06T03:54:57;20.40;64.00
1956;DHT22;978;48.314;11.562;2024-03-06T03:57:24;20.40;64.00
1956;DHT22;978;48.314;11.562;2024-03-06T03:59:50;20.40;64.00
1956;DHT22;978;48.314;11.562;2024-03-06T04:02:17;20.40;64.00
1956;DHT22;978;48.314;11.562;2024-03-06T04:04:46;20.40;64.00
1956;DHT22;978;48.314;11.562;2024-03-06T04:07:12;20.40;64.00
1956;DHT22;978;48.314;11.562;2024-03-06T04:09:41;20.50;64.00
1956;DHT22;978;48.314;11.562;2024-03-06T04:12:08;20.40;64.00
1956;DHT22;978;48.314;11.562;2024-03-06T04:14:35;20.40;64.00
1956;DHT22;978;48.314;11.562;2024-03-06T04:17:01;20.40;64.00
1956;DHT22;978;48.314;11.562;2024-03-06T04:19:29;20.40;64.00
1956;DHT22;978;48.314;11.562;2024-03-06T04:21:57;20.40;64.00
1956;DHT22;978;48.314;11.562;2024-03-06T04:24:24;20.40;64.00
1956;DHT22;978;48.314;11.562;2024-03-06T04:26:50;20.40;64.00
1956;DHT22;978;48.314;11.562;2024-03-06T04:29:17;20.40;64.00
1956;DHT22;978;48.314;11.562;2024-03-06T04:31:44;20.40;64.00
1956;DHT22;978;48.314;11.562;2024-03-06T04:34:10;20.40;64.00
1956;DHT22;978;48.314;11.562;2024-03-06T04:36:37;20.40;64.00
1956;DHT22;978;48.314;11.562;2024-03-06T04:39:05;20.40;64.00
1956;DHT22;978;48.314;11.562;2024-03-06T04:41:32;20.40;64.00
1956;DHT22;978;48.314;11.562;2024-03-06T04:43:59;20.40;64.00
1956;DHT22;978;48.314;11.562;2024-03-06T04:46:27;20.40;64.00
1956;DHT22;978;48.314;11.562;2024-03-06T04:48:53;20.40;64.00
1956;DHT22;978;48.314;11.562;2024-03-06T04:51:20;20.40;64.00
1956;DHT22;978;48.314;11.562;2024-03-06T04:53:47;20.40;64.00
1956;DHT22;978;48.314;11.562;2024-03-06T04:56:16;20.40;64.00
1956;DHT22;978;48.314;11.562;2024-03-06T04:58:44;20.40;64.00
1956;DHT22;978;48.314;11.562;2024-03-06T05:01:11;20.40;64.00
1956;DHT22;978;48.314;11.562;2024-03-06T05:03:38;20.40;64.00
1956;DHT22;978;48.314;11.562;2024-03-06T05:06:05;20.40;64.00
1956;DHT22;978;48.314;11.562;2024-03-06T05:08:32;20.40;64.00
1956;DHT22;978;48.314;11.562;2024-03-06T05:11:00;20.40;64.00
1956;DHT22;978;48.314;11.562;2024-03-06T05:13:29;20.40;64.60
1956;DHT22;978;48.314;11.562;2024-03-06T05:15:55;20.40;64.00
1956;DHT22;978;48.314;11.562;2024-03-06T05:18:22;20.40;64.00
1956;DHT22;978;48.314;11.562;2024-03-06T05:20:49;20.40;64.00
1956;DHT22;978;48.314;11.562;2024-03-06T05:23:16;20.40;64.00
1956;DHT22;978;48.314;11.562;2024-03-06T05:25:43;20.40;64.00
1956;DHT22;978;48.314;11.562;2024-03-06T05:28:10;20.40;64.00
1956;DHT22;978;48.314;11.562;2024-03-06T05:30:38;20.40;64.00
1956;DHT22;978;48.314;11.562;2024-03-06T05:33:05;20.40;64.00
1956;DHT22;978;48.314;11.562;2024-03-06T05:35:31;20.40;64.10
1956;DHT22;978;48.314;11.562;2024-03-06T05:37:58;20.40;64.00
1956;DHT22;978;48.314;11.562;2024-03-06T05:40:25;20.40;64.10
1956;DHT22;978;48.314;11.562;2024-03-06T05:42:52;20.40;64.00
1956;DHT22;978;48.314;11.562;2024-03-06T05:45:18;20.40;64.00
1956;DHT22;978;48.314;11.562;2024-03-06T05:47:46;20.40;64.00
1956;DHT22;978;48.314;11.562;2024-03-06T05:50:14;20.40;64.10
1956;DHT22;978;48.314;11.562;2024-03-06T05:52:41;20.40;64.10
1956;DHT22;978;48.314;11.562;2024-03-06T05:55:08;20.40;64.10
1956;DHT22;978;48.314;11.562;2024-03-06T05:57:35;20.40;64.10
1956;DHT22;978;48.314;11.562;2024-03-06T06:00:02;20.40;64.10
1956;DHT22;978;48.314;11.562;2024-03-06T06:02:30;20.40;64.10
1956;DHT22;978;48.314;11.562;2024-03-06T06:04:58;20.40;64.10
1956;DHT22;978;48.314;11.562;2024-03-06T06:07:25;20.40;64.10
1956;DHT22;978;48.314;11.562;2024-03-06T06:09:51;20.40;64.10
1956;DHT22;978;48.314;11.562;2024-03-06T06:12:18;20.40;64.10
1956;DHT22;978;48.314;11.562;2024-03-06T06:14:45;20.40;64.10
1956;DHT22;978;48.314;11.562;2024-03-06T06:17:12;20.40;64.10
1956;DHT22;978;48.314;11.562;2024-03-06T06:19:41;20.40;64.10
1956;DHT22;978;48.314;11.562;2024-03-06T06:22:10;20.40;64.10
1956;DHT22;978;48.314;11.562;2024-03-06T06:24:38;20.40;64.10
1956;DHT22;978;48.314;11.562;2024-03-06T06:27:06;20.40;64.10
1956;DHT22;978;48.314;11.562;2024-03-06T06:29:33;20.40;64.10
1956;DHT22;978;48.314;11.562;2024-03-06T06:32:00;20.40;64.20
1956;DHT22;978;48.314;11.562;2024-03-06T06:34:27;20.40;64.20
1956;DHT22;978;48.314;11.562;2024-03-06T06:36:53;20.40;64.20
1956;DHT22;978;48.314;11.562;2024-03-06T06:39:22;20.40;64.20
1956;DHT22;978;48.314;11.562;2024-03-06T06:41:48;20.40;64.20
1956;DHT22;978;48.314;11.562;2024-03-06T06:44:15;20.40;64.20
1956;DHT22;978;48.314;11.562;2024-03-06T06:46:42;20.40;64.20
1956;DHT22;978;48.314;11.562;2024-03-06T06:49:09;20.40;64.20
1956;DHT22;978;48.314;11.562;2024-03-06T06:51:36;20.40;64.20
1956;DHT22;978;48.314;11.562;2024-03-06T06:54:03;20.40;64.20
1956;DHT22;978;48.314;11.562;2024-03-06T06:56:32;20.40;64.30
1956;DHT22;978;48.314;11.562;2024-03-06T06:58:58;20.40;64.80
1956;DHT22;978;48.314;11.562;2024-03-06T07:01:25;20.40;64.30
1956;DHT22;978;48.314;11.562;2024-03-06T07:03:53;20.40;64.30
1956;DHT22;978;48.314;11.562;2024-03-06T07:06:19;20.40;64.30
1956;DHT22;978;48.314;11.562;2024-03-06T07:08:47;20.40;64.30
1956;DHT22;978;48.314;11.562;2024-03-06T07:11:13;20.40;64.30
1956;DHT22;978;48.314;11.562;2024-03-06T07:13:41;20.40;64.30
1956;DHT22;978;48.314;11.562;2024-03-06T07:16:08;20.40;64.30
1956;DHT22;978;48.314;11.562;2024-03-06T07:18:35;20.40;64.30
1956;DHT22;978;48.314;11.562;2024-03-06T07:21:02;20.50;64.30
1956;DHT22;978;48.314;11.562;2024-03-06T07:23:29;20.40;64.30
1956;DHT22;978;48.314;11.562;2024-03-06T07:25:55;20.40;64.30
1956;DHT22;978;48.314;11.562;2024-03-06T07:28:23;20.40;64.30
1956;DHT22;978;48.314;11.562;2024-03-06T07:30:52;20.40;64.30
1956;DHT22;978;48.314;11.562;2024-03-06T07:33:19;20.40;64.30
1956;DHT22;978;48.314;11.562;2024-03-06T07:35:45;20.40;64.30
1956;DHT22;978;48.314;11.562;2024-03-06T07:38:12;20.40;64.90
1956;DHT22;978;48.314;11.562;2024-03-06T07:40:39;20.40;64.30
1956;DHT22;978;48.314;11.562;2024-03-06T07:43:06;20.40;64.30
1956;DHT22;978;48.314;11.562;2024-03-06T07:45:33;20.40;64.30
1956;DHT22;978;48.314;11.562;2024-03-06T07:48:01;20.40;64.30
1956;DHT22;978;48.314;11.562;2024-03-06T07:50:28;20.40;64.30
1956;DHT22;978;48.314;11.562;2024-03-06T07:52:54;20.40;64.30
1956;DHT22;978;48.314;11.562;2024-03-06T07:55:21;20.40;64.30
1956;DHT22;978;48.314;11.562;2024-03-06T07:57:48;20.40;64.30
1956;DHT22;978;48.314;11.562;2024-03-06T08:00:15;20.40;64.30
1956;DHT22;978;48.314;11.562;2024-03-06T08:02:45;20.40;64.30
1956;DHT22;978;48.314;11.562;2024-03-06T08:05:16;20.40;64.30
1956;DHT22;978;48.314;11.562;2024-03-06T08:07:43;20.40;64.30
1956;DHT22;978;48.314;11.562;2024-03-06T08:10:11;20.40;64.30
1956;DHT22;978;48.314;11.562;2024-03-06T08:12:39;20.40;64.30
1956;DHT22;978;48.314;11.562;2024-03-06T08:15:07;20.40;64.30
1956;DHT22;978;48.314;11.562;2024-03-06T08:17:35;20.40;64.30
1956;DHT22;978;48.314;11.562;2024-03-06T08:20:02;20.40;64.30
1956;DHT22;978;48.314;11.562;2024-03-06T08:22:34;20.40;64.30
1956;DHT22;978;48.314;11.562;2024-03-06T08:25:05;20.40;64.30
1956;DHT22;978;48.314;11.562;2024-03-06T08:27:32;20.40;64.30
1956;DHT22;978;48.314;11.562;2024-03-06T08:29:59;20.50;64.40
1956;DHT22;978;48.314;11.562;2024-03-06T08:32:26;20.40;64.30
1956;DHT22;978;48.314;11.562;2024-03-06T08:34:54;20.40;64.30
1956;DHT22;978;48.314;11.562;2024-03-06T08:37:21;20.40;64.30
1956;DHT22;978;48.314;11.562;2024-03-06T08:39:49;20.40;64.30
1956;DHT22;978;48.314;11.562;2024-03-06T08:42:16;20.40;64.30
1956;DHT22;978;48.314;11.562;2024-03-06T08:44:44;20.40;64.60
1956;DHT22;978;48.314;11.562;2024-03-06T08:47:11;20.40;64.30
1956;DHT22;978;48.314;11.562;2024-03-06T08:49:38;20.40;64.30
1956;DHT22;978;48.314;11.562;2024-03-06T08:52:05;20.40;64.30
1956;DHT22;978;48.314;11.562;2024-03-06T08:54:32;20.40;64.30
1956;DHT22;978;48.314;11.562;2024-03-06T08:57:00;20.40;64.40
1956;DHT22;978;48.314;11.562;2024-03-06T08:59:28;20.40;64.30
1956;DHT22;978;48.314;11.562;2024-03-06T09:01:55;20.40;64.30
1956;DHT22;978;48.314;11.562;2024-03-06T09:04:22;20.40;64.30
1956;DHT22;978;48.314;11.562;2024-03-06T09:06:49;20.40;64.30
1956;DHT22;978;48.314;11.562;2024-03-06T09:09:16;20.40;64.40
1956;DHT22;978;48.314;11.562;2024-03-06T09:11:43;20.40;64.40
1956;DHT22;978;48.314;11.562;2024-03-06T09:14:11;20.40;64.40
1956;DHT22;978;48.314;11.562;2024-03-06T09:16:38;20.60;64.50
1956;DHT22;978;48.314;11.562;2024-03-06T09:19:04;20.40;64.40
1956;DHT22;978;48.314;11.562;2024-03-06T09:21:31;20.40;64.40
1956;DHT22;978;48.314;11.562;2024-03-06T09:23:58;20.40;64.40
1956;DHT22;978;48.314;11.562;2024-03-06T09:26:25;20.40;64.40
1956;DHT22;978;48.314;11.562;2024-03-06T09:28:51;20.40;64.40
1956;DHT22;978;48.314;11.562;2024-03-06T09:31:19;20.40;64.40
1956;DHT22;978;48.314;11.562;2024-03-06T09:33:46;20.40;64.40
1956;DHT22;978;48.314;11.562;2024-03-06T09:36:13;20.40;64.40
1956;DHT22;978;48.314;11.562;2024-03-06T09:38:40;20.40;64.40
1956;DHT22;978;48.314;11.562;2024-03-06T09:41:07;20.40;64.40
1956;DHT22;978;48.314;11.562;2024-03-06T09:43:34;20.40;64.40
1956;DHT22;978;48.314;11.562;2024-03-06T09:46:01;20.40;65.00
1956;DHT22;978;48.314;11.562;2024-03-06T09:48:31;20.40;64.40
1956;DHT22;978;48.314;11.562;2024-03-06T09:51:01;20.40;64.50
1956;DHT22;978;48.314;11.562;2024-03-06T09:53:28;20.40;64.50
1956;DHT22;978;48.314;11.562;2024-03-06T09:55:56;20.40;64.50
1956;DHT22;978;48.314;11.562;2024-03-06T09:58:24;20.40;64.50
1956;DHT22;978;48.314;11.562;2024-03-06T10:00:53;20.40;64.50
1956;DHT22;978;48.314;11.562;2024-03-06T10:03:21;20.40;64.50
1956;DHT22;978;48.314;11.562;2024-03-06T10:05:49;20.40;64.50
1956;DHT22;978;48.314;11.562;2024-03-06T10:08:16;20.40;64.50
1956;DHT22;978;48.314;11.562;2024-03-06T10:10:43;20.40;64.50
1956;DHT22;978;48.314;11.562;2024-03-06T10:13:11;20.40;64.50
1956;DHT22;978;48.314;11.562;2024-03-06T10:15:38;20.40;64.50
1956;DHT22;978;48.314;11.562;2024-03-06T10:18:15;20.40;64.50
1956;DHT22;978;48.314;11.562;2024-03-06T10:20:43;20.40;65.10
1956;DHT22;978;48.314;11.562;2024-03-06T10:23:12;20.40;64.50
1956;DHT22;978;48.314;11.562;2024-03-06T10:25:39;20.40;64.50
1956;DHT22;978;48.314;11.562;2024-03-06T10:28:06;20.40;64.50
1956;DHT22;978;48.314;11.562;2024-03-06T10:30:33;20.40;64.50
1956;DHT22;978;48.314;11.562;2024-03-06T10:33:02;20.40;64.50
1956;DHT22;978;48.314;11.562;2024-03-06T10:35:29;20.40;64.50
1956;DHT22;978;48.314;11.562;2024-03-06T10:37:56;20.40;64.50
1956;DHT22;978;48.314;11.562;2024-03-06T10:40:27;20.40;64.50
1956;DHT22;978;48.314;11.562;2024-03-06T10:42:57;20.40;64.50
1956;DHT22;978;48.314;11.562;2024-03-06T10:45:32;20.40;64.50
1956;DHT22;978;48.314;11.562;2024-03-06T10:48:01;20.40;64.50
1956;DHT22;978;48.314;11.562;2024-03-06T10:50:28;20.40;64.50
1956;DHT22;978;48.314;11.562;2024-03-06T10:52:56;20.40;64.50
1956;DHT22;978;48.314;11.562;2024-03-06T10:55:27;20.40;64.50
1956;DHT22;978;48.314;11.562;2024-03-06T10:57:55;20.40;64.50
1956;DHT22;978;48.314;11.562;2024-03-06T11:00:23;21.10;64.90
1956;DHT22;978;48.314;11.562;2024-03-06T11:02:53;20.40;64.50
1956;DHT22;978;48.314;11.562;2024-03-06T11:05:21;20.40;64.50
1956;DHT22;978;48.314;11.562;2024-03-06T11:07:48;20.40;64.50
1956;DHT22;978;48.314;11.562;2024-03-06T11:10:31;20.40;64.50
1956;DHT22;978;48.314;11.562;2024-03-06T11:12:58;20.40;64.50
1956;DHT22;978;48.314;11.562;2024-03-06T11:15:25;20.40;64.50
1956;DHT22;978;48.314;11.562;2024-03-06T11:17:52;20.40;64.50
1956;DHT22;978;48.314;11.562;2024-03-06T11:20:21;20.40;64.50
1956;DHT22;978;48.314;11.562;2024-03-06T11:23:04;20.40;64.50
1956;DHT22;978;48.314;11.562;2024-03-06T11:26:03;20.40;64.50
1956;DHT22;978;48.314;11.562;2024-03-06T11:28:31;20.40;64.50
1956;DHT22;978;48.314;11.562;2024-03-06T11:31:00;20.40;64.50
1956;DHT22;978;48.314;11.562;2024-03-06T11:33:37;20.40;64.50
1956;DHT22;978;48.314;11.562;2024-03-06T11:36:20;20.40;64.50
1956;DHT22;978;48.314;11.562;2024-03-06T11:38:51;20.40;64.50
1956;DHT22;978;48.314;11.562;2024-03-06T11:41:20;20.40;64.50
1956;DHT22;978;48.314;11.562;2024-03-06T11:43:48;20.40;64.50
1956;DHT22;978;48.314;11.562;2024-03-06T11:46:16;20.40;64.50
1956;DHT22;978;48.314;11.562;2024-03-06T11:48:51;20.40;64.50
1956;DHT22;978;48.314;11.562;2024-03-06T11:51:18;20.40;64.50
1956;DHT22;978;48.314;11.562;2024-03-06T11:53:45;20.40;64.50
1956;DHT22;978;48.314;11.562;2024-03-06T11:56:16;20.40;64.50
1956;DHT22;978;48.314;11.562;2024-03-06T11:58:45;20.40;64.50
1956;DHT22;978;48.314;11.562;2024-03-06T12:01:12;20.40;64.50
1956;DHT22;978;48.314;11.562;2024-03-06T12:03:39;20.40;64.50
1956;DHT22;978;48.314;11.562;2024-03-06T12:06:06;20.40;64.50
1956;DHT22;978;48.314;11.562;2024-03-06T12:08:34;20.40;64.50
1956;DHT22;978;48.314;11.562;2024-03-06T12:11:02;20.40;64.50
1956;DHT22;978;48.314;11.562;2024-03-06T12:13:30;20.40;64.50
1956;DHT22;978;48.314;11.562;2024-03-06T12:15:58;20.40;64.50
1956;DHT22;978;48.314;11.562;2024-03-06T12:18:25;20.40;64.60
1956;DHT22;978;48.314;11.562;2024-03-06T12:20:51;20.40;64.50
1956;DHT22;978;48.314;11.562;2024-03-06T12:23:19;20.40;64.50
1956;DHT22;978;48.314;11.562;2024-03-06T12:25:48;20.50;64.60
1956;DHT22;978;48.314;11.562;2024-03-06T12:28:15;20.40;64.50
1956;DHT22;978;48.314;11.562;2024-03-06T12:30:43;20.40;64.50
1956;DHT22;978;48.314;11.562;2024-03-06T12:33:16;20.50;64.60
1956;DHT22;978;48.314;11.562;2024-03-06T12:35:43;20.40;64.50
1956;DHT22;978;48.314;11.562;2024-03-06T12:38:13;20.40;64.50
1956;DHT22;978;48.314;11.562;2024-03-06T12:40:40;20.40;64.50
1956;DHT22;978;48.314;11.562;2024-03-06T12:43:07;20.40;64.50
1956;DHT22;978;48.314;11.562;2024-03-06T12:45:35;20.40;64.50
1956;DHT22;978;48.314;11.562;2024-03-06T12:48:03;20.40;64.50
1956;DHT22;978;48.314;11.562;2024-03-06T12:50:31;20.40;64.50
1956;DHT22;978;48.314;11.562;2024-03-06T12:52:57;21.00;64.90
1956;DHT22;978;48.314;11.562;2024-03-06T12:55:24;20.40;64.50
1956;DHT22;978;48.314;11.562;2024-03-06T12:57:51;20.40;64.50
1956;DHT22;978;48.314;11.562;2024-03-06T13:00:19;20.40;64.50
1956;DHT22;978;48.314;11.562;2024-03-06T13:02:46;20.40;64.50
1956;DHT22;978;48.314;11.562;2024-03-06T13:05:13;20.40;64.50
1956;DHT22;978;48.314;11.562;2024-03-06T13:07:42;20.40;64.50
1956;DHT22;978;48.314;11.562;2024-03-06T13:10:10;20.40;64.50
1956;DHT22;978;48.314;11.562;2024-03-06T13:12:37;20.40;64.50
1956;DHT22;978;48.314;11.562;2024-03-06T13:15:04;20.40;64.50
1956;DHT22;978;48.314;11.562;2024-03-06T13:17:32;20.40;64.50
1956;DHT22;978;48.314;11.562;2024-03-06T13:19:59;20.40;64.50
1956;DHT22;978;48.314;11.562;2024-03-06T13:22:26;20.40;64.50
1956;DHT22;978;48.314;11.562;2024-03-06T13:24:54;20.40;64.50
1956;DHT22;978;48.314;11.562;2024-03-06T13:27:22;20.40;64.50
1956;DHT22;978;48.314;11.562;2024-03-06T13:29:49;20.40;64.50
1956;DHT22;978;48.314;11.562;2024-03-06T13:32:16;20.40;64.50
1956;DHT22;978;48.314;11.562;2024-03-06T13:34:43;20.40;64.40
1956;DHT22;978;48.314;11.562;2024-03-06T13:37:10;20.40;64.50
1956;DHT22;978;48.314;11.562;2024-03-06T13:39:37;20.40;64.50
1956;DHT22;978;48.314;11.562;2024-03-06T13:42:06;20.40;64.50
1956;DHT22;978;48.314;11.562;2024-03-06T13:44:35;20.40;64.50
1956;DHT22;978;48.314;11.562;2024-03-06T13:47:02;20.40;65.10
1956;DHT22;978;48.314;11.562;2024-03-06T13:49:37;20.40;64.50
1956;DHT22;978;48.314;11.562;2024-03-06T13:52:05;20.40;64.40
1956;DHT22;978;48.314;11.562;2024-03-06T13:54:34;20.40;64.50
1956;DHT22;978;48.314;11.562;2024-03-06T13:57:01;20.40;64.50
1956;DHT22;978;48.314;11.562;2024-03-06T13:59:30;20.50;64.50
1956;DHT22;978;48.314;11.562;2024-03-06T14:01:57;20.40;64.40
1956;DHT22;978;48.314;11.562;2024-03-06T14:04:26;20.40;64.40
1956;DHT22;978;48.314;11.562;2024-03-06T14:06:53;20.40;64.40
1956;DHT22;978;48.314;11.562;2024-03-06T14:09:20;20.40;64.50
1956;DHT22;978;48.314;11.562;2024-03-06T14:11:49;20.40;64.40
1956;DHT22;978;48.314;11.562;2024-03-06T14:14:15;20.40;64.50
1956;DHT22;978;48.314;11.562;2024-03-06T14:16:45;20.40;64.50
1956;DHT22;978;48.314;11.562;2024-03-06T14:19:12;20.40;64.50
1956;DHT22;978;48.314;11.562;2024-03-06T14:21:39;20.40;64.40
1956;DHT22;978;48.314;11.562;2024-03-06T14:24:06;20.40;64.40
1956;DHT22;978;48.314;11.562;2024-03-06T14:26:33;20.40;64.40
1956;DHT22;978;48.314;11.562;2024-03-06T14:29:00;20.40;64.50
1956;DHT22;978;48.314;11.562;2024-03-06T14:31:28;20.40;64.50
1956;DHT22;978;48.314;11.562;2024-03-06T14:33:56;20.40;64.50
1956;DHT22;978;48.314;11.562;2024-03-06T14:36:23;20.40;64.50
1956;DHT22;978;48.314;11.562;2024-03-06T14:38:50;20.50;64.50
1956;DHT22;978;48.314;11.562;2024-03-06T14:41:18;20.40;64.50
1956;DHT22;978;48.314;11.562;2024-03-06T14:43:47;20.40;64.50
1956;DHT22;978;48.314;11.562;2024-03-06T14:46:14;20.40;64.50
1956;DHT22;978;48.314;11.562;2024-03-06T14:48:41;20.40;64.50
1956;DHT22;978;48.314;11.562;2024-03-06T14:51:09;20.40;64.50
1956;DHT22;978;48.314;11.562;2024-03-06T14:53:35;20.40;64.50
1956;DHT22;978;48.314;11.562;2024-03-06T14:56:03;20.40;64.50
1956;DHT22;978;48.314;11.562;2024-03-06T14:58:30;20.40;64.50
1956;DHT22;978;48.314;11.562;2024-03-06T15:00:57;20.40;64.50
1956;DHT22;978;48.314;11.562;2024-03-06T15:03:23;20.40;64.50
1956;DHT22;978;48.314;11.562;2024-03-06T15:05:50;20.40;64.50
1956;DHT22;978;48.314;11.562;2024-03-06T15:08:18;20.40;64.50
1956;DHT22;978;48.314;11.562;2024-03-06T15:10:45;20.40;64.50
1956;DHT22;978;48.314;11.562;2024-03-06T15:13:12;20.40;64.50
1956;DHT22;978;48.314;11.562;2024-03-06T15:15:41;20.40;64.50
1956;DHT22;978;48.314;11.562;2024-03-06T15:18:08;20.40;64.50
1956;DHT22;978;48.314;11.562;2024-03-06T15:20:35;20.40;64.50
1956;DHT22;978;48.314;11.562;2024-03-06T15:23:02;20.40;64.50
1956;DHT22;978;48.314;11.562;2024-03-06T15:25:31;20.40;64.50
1956;DHT22;978;48.314;11.562;2024-03-06T15:27:57;20.40;64.50
1956;DHT22;978;48.314;11.562;2024-03-06T15:30:24;20.40;64.50
1956;DHT22;978;48.314;11.562;2024-03-06T15:32:52;20.40;64.50
1956;DHT22;978;48.314;11.562;2024-03-06T15:35:19;20.40;64.50
1956;DHT22;978;48.314;11.562;2024-03-06T15:37:46;20.40;64.50
1956;DHT22;978;48.314;11.562;2024-03-06T15:40:14;20.40;64.50
1956;DHT22;978;48.314;11.562;2024-03-06T15:42:42;20.40;64.50
1956;DHT22;978;48.314;11.562;2024-03-06T15:45:11;20.40;64.50
1956;DHT22;978;48.314;11.562;2024-03-06T15:47:38;20.40;64.50
1956;DHT22;978;48.314;11.562;2024-03-06T15:50:08;20.40;64.50
1956;DHT22;978;48.314;11.562;2024-03-06T15:52:36;20.40;64.50
1956;DHT22;978;48.314;11.562;2024-03-06T15:55:03;20.50;64.50
1956;DHT22;978;48.314;11.562;2024-03-06T15:57:32;20.40;64.50
1956;DHT22;978;48.314;11.562;2024-03-06T16:00:03;20.40;64.50
1956;DHT22;978;48.314;11.562;2024-03-06T16:02:32;20.40;64.50
1956;DHT22;978;48.314;11.562;2024-03-06T16:05:00;20.40;64.50